<?xml version="1.0" encoding="UTF-8" standalone="no" ?>
<gpx xmlns="http://www.topografix.com/GPX/1/1" xmlns:xsi="http://www.w3.org/2001/XMLSchema-instance" xsi:schemaLocation="http://www.topografix.com/GPX/1/1 http://www.topografix.com/GPX/1/1/gpx.xsd" version="1.1" creator="VisuGPX - https://www.visugpx.com">
  <metadata>
    <name>La Tournai VTT 50km</name>
    <desc><![CDATA[

]]></desc>
  </metadata>
  <wpt lat="50.59761" lon="3.44297">
    <ele>36.4</ele>
    <name><![CDATA[RAVITO 2]]></name>
    <extensions>
      <visugpx:TrackPointExtension xmlns:visugpx="https://www.visugpx.com/editgpx/">
        <visugpx:dec>85,74</visugpx:dec>
      </visugpx:TrackPointExtension>
    </extensions>
  </wpt>
  <wpt lat="50.61249" lon="3.42961">
    <ele>22</ele>
    <name><![CDATA[RAVITO 3]]></name>
    <extensions>
      <visugpx:TrackPointExtension xmlns:visugpx="https://www.visugpx.com/editgpx/">
        <visugpx:dec>171,0</visugpx:dec>
      </visugpx:TrackPointExtension>
    </extensions>
  </wpt>
  <wpt lat="50.57999" lon="3.36336">
    <ele>39</ele>
    <name><![CDATA[RAVITO 1]]></name>
    <extensions>
      <visugpx:TrackPointExtension xmlns:visugpx="https://www.visugpx.com/editgpx/">
        <visugpx:dec>-100,84</visugpx:dec>
      </visugpx:TrackPointExtension>
    </extensions>
  </wpt>
  <trk>
    <name><![CDATA[La Tournai VTT 50km]]></name>
    <extensions>
      <line xmlns="http://www.topografix.com/GPX/gpx_style/0/2">
        <color>00FF00</color>
        <width>4</width>
      </line>
    </extensions>
    <trkseg>
      <trkpt lat="50.6386" lon="3.38087">
        <ele>21</ele>
        <time>2024-09-11T18:39:13Z</time>
      </trkpt>
      <trkpt lat="50.63869" lon="3.38084">
        <ele>21</ele>
        <time>2024-09-11T18:39:15Z</time>
      </trkpt>
      <trkpt lat="50.63868" lon="3.37994">
        <ele>20</ele>
        <time>2024-09-11T18:39:28Z</time>
      </trkpt>
      <trkpt lat="50.63934" lon="3.3798">
        <ele>19</ele>
        <time>2024-09-11T18:39:44Z</time>
      </trkpt>
      <trkpt lat="50.63998" lon="3.37976">
        <ele>20</ele>
        <time>2024-09-11T18:39:59Z</time>
      </trkpt>
      <trkpt lat="50.64016" lon="3.37929">
        <ele>21</ele>
        <time>2024-09-11T18:40:07Z</time>
      </trkpt>
      <trkpt lat="50.64095" lon="3.3798">
        <ele>21</ele>
        <time>2024-09-11T18:40:27Z</time>
      </trkpt>
      <trkpt lat="50.64162" lon="3.37976">
        <ele>23</ele>
        <time>2024-09-11T18:40:43Z</time>
      </trkpt>
      <trkpt lat="50.64215" lon="3.38">
        <ele>22</ele>
        <time>2024-09-11T18:40:56Z</time>
      </trkpt>
      <trkpt lat="50.64319" lon="3.38044">
        <ele>21</ele>
        <time>2024-09-11T18:41:21Z</time>
      </trkpt>
      <trkpt lat="50.64393" lon="3.37558">
        <ele>30</ele>
        <time>2024-09-11T18:42:35Z</time>
      </trkpt>
      <trkpt lat="50.64328" lon="3.37518">
        <ele>28</ele>
        <time>2024-09-11T18:42:51Z</time>
      </trkpt>
      <trkpt lat="50.64296" lon="3.37452">
        <ele>26</ele>
        <time>2024-09-11T18:43:03Z</time>
      </trkpt>
      <trkpt lat="50.64283" lon="3.37386">
        <ele>25</ele>
        <time>2024-09-11T18:43:14Z</time>
      </trkpt>
      <trkpt lat="50.64286" lon="3.37318">
        <ele>24</ele>
        <time>2024-09-11T18:43:24Z</time>
      </trkpt>
      <trkpt lat="50.64317" lon="3.37177">
        <ele>24</ele>
        <time>2024-09-11T18:43:46Z</time>
      </trkpt>
      <trkpt lat="50.6429" lon="3.37116">
        <ele>23</ele>
        <time>2024-09-11T18:43:57Z</time>
      </trkpt>
      <trkpt lat="50.64287" lon="3.37064">
        <ele>24</ele>
        <time>2024-09-11T18:44:05Z</time>
      </trkpt>
      <trkpt lat="50.64267" lon="3.37064">
        <ele>23</ele>
        <time>2024-09-11T18:44:09Z</time>
      </trkpt>
      <trkpt lat="50.64256" lon="3.37018">
        <ele>24</ele>
        <time>2024-09-11T18:44:16Z</time>
      </trkpt>
      <trkpt lat="50.64234" lon="3.37015">
        <ele>23</ele>
        <time>2024-09-11T18:44:22Z</time>
      </trkpt>
      <trkpt lat="50.6422" lon="3.36924">
        <ele>24</ele>
        <time>2024-09-11T18:44:36Z</time>
      </trkpt>
      <trkpt lat="50.64231" lon="3.36805">
        <ele>22</ele>
        <time>2024-09-11T18:44:53Z</time>
      </trkpt>
      <trkpt lat="50.64159" lon="3.36785">
        <ele>20</ele>
        <time>2024-09-11T18:45:10Z</time>
      </trkpt>
      <trkpt lat="50.64143" lon="3.36914">
        <ele>20</ele>
        <time>2024-09-11T18:45:30Z</time>
      </trkpt>
      <trkpt lat="50.64077" lon="3.36892">
        <ele>18</ele>
        <time>2024-09-11T18:45:46Z</time>
      </trkpt>
      <trkpt lat="50.64069" lon="3.36931">
        <ele>19</ele>
        <time>2024-09-11T18:45:52Z</time>
      </trkpt>
      <trkpt lat="50.64075" lon="3.36993">
        <ele>20</ele>
        <time>2024-09-11T18:46:01Z</time>
      </trkpt>
      <trkpt lat="50.6406" lon="3.37044">
        <ele>20</ele>
        <time>2024-09-11T18:46:09Z</time>
      </trkpt>
      <trkpt lat="50.63995" lon="3.37024">
        <ele>20</ele>
        <time>2024-09-11T18:46:25Z</time>
      </trkpt>
      <trkpt lat="50.63989" lon="3.37073">
        <ele>19</ele>
        <time>2024-09-11T18:46:32Z</time>
      </trkpt>
      <trkpt lat="50.63955" lon="3.37103">
        <ele>19</ele>
        <time>2024-09-11T18:46:41Z</time>
      </trkpt>
      <trkpt lat="50.63902" lon="3.37069">
        <ele>19</ele>
        <time>2024-09-11T18:46:55Z</time>
      </trkpt>
      <trkpt lat="50.63869" lon="3.36985">
        <ele>18</ele>
        <time>2024-09-11T18:47:09Z</time>
      </trkpt>
      <trkpt lat="50.6378" lon="3.37052">
        <ele>17</ele>
        <time>2024-09-11T18:47:32Z</time>
      </trkpt>
      <trkpt lat="50.63756" lon="3.37087">
        <ele>16</ele>
        <time>2024-09-11T18:47:40Z</time>
      </trkpt>
      <trkpt lat="50.63713" lon="3.37058">
        <ele>17</ele>
        <time>2024-09-11T18:47:51Z</time>
      </trkpt>
      <trkpt lat="50.63707" lon="3.37006">
        <ele>17</ele>
        <time>2024-09-11T18:47:59Z</time>
      </trkpt>
      <trkpt lat="50.63642" lon="3.3701">
        <ele>17</ele>
        <time>2024-09-11T18:48:14Z</time>
      </trkpt>
      <trkpt lat="50.63581" lon="3.36972">
        <ele>16</ele>
        <time>2024-09-11T18:48:29Z</time>
      </trkpt>
      <trkpt lat="50.63584" lon="3.36942">
        <ele>16</ele>
        <time>2024-09-11T18:48:34Z</time>
      </trkpt>
      <trkpt lat="50.63551" lon="3.36798">
        <ele>14</ele>
        <time>2024-09-11T18:48:56Z</time>
      </trkpt>
      <trkpt lat="50.63544" lon="3.36773">
        <ele>14</ele>
        <time>2024-09-11T18:49:00Z</time>
      </trkpt>
      <trkpt lat="50.63535" lon="3.36765">
        <ele>14</ele>
        <time>2024-09-11T18:49:03Z</time>
      </trkpt>
      <trkpt lat="50.6352" lon="3.36753">
        <ele>14</ele>
        <time>2024-09-11T18:49:07Z</time>
      </trkpt>
      <trkpt lat="50.635" lon="3.36751">
        <ele>14</ele>
        <time>2024-09-11T18:49:11Z</time>
      </trkpt>
      <trkpt lat="50.63392" lon="3.36818">
        <ele>14</ele>
        <time>2024-09-11T18:49:39Z</time>
      </trkpt>
      <trkpt lat="50.63381" lon="3.36894">
        <ele>14</ele>
        <time>2024-09-11T18:49:50Z</time>
      </trkpt>
      <trkpt lat="50.6336" lon="3.36957">
        <ele>14</ele>
        <time>2024-09-11T18:50:01Z</time>
      </trkpt>
      <trkpt lat="50.63333" lon="3.3703">
        <ele>15</ele>
        <time>2024-09-11T18:50:13Z</time>
      </trkpt>
      <trkpt lat="50.63308" lon="3.37083">
        <ele>17</ele>
        <time>2024-09-11T18:50:23Z</time>
      </trkpt>
      <trkpt lat="50.63197" lon="3.36882">
        <ele>15</ele>
        <time>2024-09-11T18:51:02Z</time>
      </trkpt>
      <trkpt lat="50.63108" lon="3.37002">
        <ele>15</ele>
        <time>2024-09-11T18:51:30Z</time>
      </trkpt>
      <trkpt lat="50.6316" lon="3.37128">
        <ele>18</ele>
        <time>2024-09-11T18:51:52Z</time>
      </trkpt>
      <trkpt lat="50.6314" lon="3.37134">
        <ele>17</ele>
        <time>2024-09-11T18:51:57Z</time>
      </trkpt>
      <trkpt lat="50.63012" lon="3.37086">
        <ele>13</ele>
        <time>2024-09-11T18:52:27Z</time>
      </trkpt>
      <trkpt lat="50.62961" lon="3.37118">
        <ele>14</ele>
        <time>2024-09-11T18:52:40Z</time>
      </trkpt>
      <trkpt lat="50.62844" lon="3.3724">
        <ele>13</ele>
        <time>2024-09-11T18:53:13Z</time>
      </trkpt>
      <trkpt lat="50.62771" lon="3.37276">
        <ele>14</ele>
        <time>2024-09-11T18:53:31Z</time>
      </trkpt>
      <trkpt lat="50.62769" lon="3.37249">
        <ele>14</ele>
        <time>2024-09-11T18:53:35Z</time>
      </trkpt>
      <trkpt lat="50.62788" lon="3.37219">
        <ele>14</ele>
        <time>2024-09-11T18:53:41Z</time>
      </trkpt>
      <trkpt lat="50.62782" lon="3.37187">
        <ele>14</ele>
        <time>2024-09-11T18:53:46Z</time>
      </trkpt>
      <trkpt lat="50.62803" lon="3.37164">
        <ele>14</ele>
        <time>2024-09-11T18:53:52Z</time>
      </trkpt>
      <trkpt lat="50.62794" lon="3.37116">
        <ele>14</ele>
        <time>2024-09-11T18:54:00Z</time>
      </trkpt>
      <trkpt lat="50.62801" lon="3.37081">
        <ele>14</ele>
        <time>2024-09-11T18:54:05Z</time>
      </trkpt>
      <trkpt lat="50.62775" lon="3.3704">
        <ele>15</ele>
        <time>2024-09-11T18:54:14Z</time>
      </trkpt>
      <trkpt lat="50.62832" lon="3.36953">
        <ele>15</ele>
        <time>2024-09-11T18:54:32Z</time>
      </trkpt>
      <trkpt lat="50.62867" lon="3.3695">
        <ele>15</ele>
        <time>2024-09-11T18:54:40Z</time>
      </trkpt>
      <trkpt lat="50.62886" lon="3.36971">
        <ele>15</ele>
        <time>2024-09-11T18:54:46Z</time>
      </trkpt>
      <trkpt lat="50.62962" lon="3.3695">
        <ele>16</ele>
        <time>2024-09-11T18:55:04Z</time>
      </trkpt>
      <trkpt lat="50.6305" lon="3.36878">
        <ele>15</ele>
        <time>2024-09-11T18:55:27Z</time>
      </trkpt>
      <trkpt lat="50.63068" lon="3.36845">
        <ele>15</ele>
        <time>2024-09-11T18:55:33Z</time>
      </trkpt>
      <trkpt lat="50.63127" lon="3.36767">
        <ele>16</ele>
        <time>2024-09-11T18:55:51Z</time>
      </trkpt>
      <trkpt lat="50.63055" lon="3.36514">
        <ele>19</ele>
        <time>2024-09-11T18:56:32Z</time>
      </trkpt>
      <trkpt lat="50.63042" lon="3.36433">
        <ele>21</ele>
        <time>2024-09-11T18:56:45Z</time>
      </trkpt>
      <trkpt lat="50.63072" lon="3.36223">
        <ele>17</ele>
        <time>2024-09-11T18:57:17Z</time>
      </trkpt>
      <trkpt lat="50.6305" lon="3.36081">
        <ele>18</ele>
        <time>2024-09-11T18:57:38Z</time>
      </trkpt>
      <trkpt lat="50.6312" lon="3.3601">
        <ele>18</ele>
        <time>2024-09-11T18:57:58Z</time>
      </trkpt>
      <trkpt lat="50.63069" lon="3.35883">
        <ele>18</ele>
        <time>2024-09-11T18:58:20Z</time>
      </trkpt>
      <trkpt lat="50.63194" lon="3.35697">
        <ele>19</ele>
        <time>2024-09-11T18:59:00Z</time>
      </trkpt>
      <trkpt lat="50.63428" lon="3.35442">
        <ele>16</ele>
        <time>2024-09-11T19:00:07Z</time>
      </trkpt>
      <trkpt lat="50.63302" lon="3.35185">
        <ele>16</ele>
        <time>2024-09-11T19:00:55Z</time>
      </trkpt>
      <trkpt lat="50.63038" lon="3.35381">
        <ele>19</ele>
        <time>2024-09-11T19:02:03Z</time>
      </trkpt>
      <trkpt lat="50.62945" lon="3.35606">
        <ele>17</ele>
        <time>2024-09-11T19:02:43Z</time>
      </trkpt>
      <trkpt lat="50.6291" lon="3.35606">
        <ele>17</ele>
        <time>2024-09-11T19:02:51Z</time>
      </trkpt>
      <trkpt lat="50.6296" lon="3.35457">
        <ele>18</ele>
        <time>2024-09-11T19:03:16Z</time>
      </trkpt>
      <trkpt lat="50.62821" lon="3.35115">
        <ele>15</ele>
        <time>2024-09-11T19:04:16Z</time>
      </trkpt>
      <trkpt lat="50.62757" lon="3.35005">
        <ele>21</ele>
        <time>2024-09-11T19:04:38Z</time>
      </trkpt>
      <trkpt lat="50.6278" lon="3.34984">
        <ele>21</ele>
        <time>2024-09-11T19:04:44Z</time>
      </trkpt>
      <trkpt lat="50.6278" lon="3.35011">
        <ele>19</ele>
        <time>2024-09-11T19:04:48Z</time>
      </trkpt>
      <trkpt lat="50.62784" lon="3.35024">
        <ele>18</ele>
        <time>2024-09-11T19:04:50Z</time>
      </trkpt>
      <trkpt lat="50.62816" lon="3.35052">
        <ele>15</ele>
        <time>2024-09-11T19:04:59Z</time>
      </trkpt>
      <trkpt lat="50.62832" lon="3.3505">
        <ele>15</ele>
        <time>2024-09-11T19:05:03Z</time>
      </trkpt>
      <trkpt lat="50.62854" lon="3.3502">
        <ele>15</ele>
        <time>2024-09-11T19:05:09Z</time>
      </trkpt>
      <trkpt lat="50.62859" lon="3.34979">
        <ele>16</ele>
        <time>2024-09-11T19:05:16Z</time>
      </trkpt>
      <trkpt lat="50.62858" lon="3.34973">
        <ele>16</ele>
        <time>2024-09-11T19:05:17Z</time>
      </trkpt>
      <trkpt lat="50.62847" lon="3.3497">
        <ele>17</ele>
        <time>2024-09-11T19:05:19Z</time>
      </trkpt>
      <trkpt lat="50.62837" lon="3.34982">
        <ele>17</ele>
        <time>2024-09-11T19:05:22Z</time>
      </trkpt>
      <trkpt lat="50.62832" lon="3.34996">
        <ele>16</ele>
        <time>2024-09-11T19:05:25Z</time>
      </trkpt>
      <trkpt lat="50.62826" lon="3.34996">
        <ele>17</ele>
        <time>2024-09-11T19:05:26Z</time>
      </trkpt>
      <trkpt lat="50.62823" lon="3.3498">
        <ele>18</ele>
        <time>2024-09-11T19:05:28Z</time>
      </trkpt>
      <trkpt lat="50.62833" lon="3.34917">
        <ele>20</ele>
        <time>2024-09-11T19:05:38Z</time>
      </trkpt>
      <trkpt lat="50.6283" lon="3.34896">
        <ele>22</ele>
        <time>2024-09-11T19:05:41Z</time>
      </trkpt>
      <trkpt lat="50.62825" lon="3.34889">
        <ele>23</ele>
        <time>2024-09-11T19:05:43Z</time>
      </trkpt>
      <trkpt lat="50.62806" lon="3.34879">
        <ele>25</ele>
        <time>2024-09-11T19:05:47Z</time>
      </trkpt>
      <trkpt lat="50.62782" lon="3.34892">
        <ele>26</ele>
        <time>2024-09-11T19:05:53Z</time>
      </trkpt>
      <trkpt lat="50.62773" lon="3.34798">
        <ele>28</ele>
        <time>2024-09-11T19:06:07Z</time>
      </trkpt>
      <trkpt lat="50.62776" lon="3.34723">
        <ele>25</ele>
        <time>2024-09-11T19:06:19Z</time>
      </trkpt>
      <trkpt lat="50.62782" lon="3.34696">
        <ele>23</ele>
        <time>2024-09-11T19:06:23Z</time>
      </trkpt>
      <trkpt lat="50.62787" lon="3.34686">
        <ele>23</ele>
        <time>2024-09-11T19:06:25Z</time>
      </trkpt>
      <trkpt lat="50.62825" lon="3.34684">
        <ele>24</ele>
        <time>2024-09-11T19:06:34Z</time>
      </trkpt>
      <trkpt lat="50.62846" lon="3.34672">
        <ele>23</ele>
        <time>2024-09-11T19:06:39Z</time>
      </trkpt>
      <trkpt lat="50.6289" lon="3.34688">
        <ele>21</ele>
        <time>2024-09-11T19:06:49Z</time>
      </trkpt>
      <trkpt lat="50.62905" lon="3.3472">
        <ele>20</ele>
        <time>2024-09-11T19:06:55Z</time>
      </trkpt>
      <trkpt lat="50.62905" lon="3.34745">
        <ele>20</ele>
        <time>2024-09-11T19:06:59Z</time>
      </trkpt>
      <trkpt lat="50.629" lon="3.34751">
        <ele>21</ele>
        <time>2024-09-11T19:07:00Z</time>
      </trkpt>
      <trkpt lat="50.62901" lon="3.34775">
        <ele>20</ele>
        <time>2024-09-11T19:07:04Z</time>
      </trkpt>
      <trkpt lat="50.62911" lon="3.34788">
        <ele>18</ele>
        <time>2024-09-11T19:07:07Z</time>
      </trkpt>
      <trkpt lat="50.62935" lon="3.348">
        <ele>16</ele>
        <time>2024-09-11T19:07:13Z</time>
      </trkpt>
      <trkpt lat="50.62952" lon="3.34802">
        <ele>15</ele>
        <time>2024-09-11T19:07:17Z</time>
      </trkpt>
      <trkpt lat="50.62971" lon="3.34789">
        <ele>15</ele>
        <time>2024-09-11T19:07:22Z</time>
      </trkpt>
      <trkpt lat="50.62994" lon="3.34778">
        <ele>14</ele>
        <time>2024-09-11T19:07:27Z</time>
      </trkpt>
      <trkpt lat="50.63003" lon="3.34768">
        <ele>13</ele>
        <time>2024-09-11T19:07:30Z</time>
      </trkpt>
      <trkpt lat="50.63003" lon="3.34724">
        <ele>13</ele>
        <time>2024-09-11T19:07:36Z</time>
      </trkpt>
      <trkpt lat="50.63019" lon="3.34695">
        <ele>13</ele>
        <time>2024-09-11T19:07:42Z</time>
      </trkpt>
      <trkpt lat="50.63023" lon="3.34658">
        <ele>13</ele>
        <time>2024-09-11T19:07:48Z</time>
      </trkpt>
      <trkpt lat="50.63031" lon="3.34644">
        <ele>12</ele>
        <time>2024-09-11T19:07:50Z</time>
      </trkpt>
      <trkpt lat="50.63049" lon="3.34639">
        <ele>12</ele>
        <time>2024-09-11T19:07:55Z</time>
      </trkpt>
      <trkpt lat="50.63055" lon="3.34611">
        <ele>12</ele>
        <time>2024-09-11T19:07:59Z</time>
      </trkpt>
      <trkpt lat="50.63045" lon="3.34595">
        <ele>12</ele>
        <time>2024-09-11T19:08:02Z</time>
      </trkpt>
      <trkpt lat="50.63008" lon="3.34601">
        <ele>12</ele>
        <time>2024-09-11T19:08:11Z</time>
      </trkpt>
      <trkpt lat="50.62973" lon="3.34569">
        <ele>14</ele>
        <time>2024-09-11T19:08:21Z</time>
      </trkpt>
      <trkpt lat="50.62957" lon="3.34561">
        <ele>14</ele>
        <time>2024-09-11T19:08:24Z</time>
      </trkpt>
      <trkpt lat="50.62939" lon="3.34575">
        <ele>15</ele>
        <time>2024-09-11T19:08:29Z</time>
      </trkpt>
      <trkpt lat="50.62934" lon="3.34578">
        <ele>16</ele>
        <time>2024-09-11T19:08:30Z</time>
      </trkpt>
      <trkpt lat="50.62924" lon="3.34541">
        <ele>15</ele>
        <time>2024-09-11T19:08:36Z</time>
      </trkpt>
      <trkpt lat="50.62932" lon="3.345">
        <ele>14</ele>
        <time>2024-09-11T19:08:43Z</time>
      </trkpt>
      <trkpt lat="50.62944" lon="3.34491">
        <ele>14</ele>
        <time>2024-09-11T19:08:46Z</time>
      </trkpt>
      <trkpt lat="50.62968" lon="3.34498">
        <ele>14</ele>
        <time>2024-09-11T19:08:52Z</time>
      </trkpt>
      <trkpt lat="50.62992" lon="3.34501">
        <ele>14</ele>
        <time>2024-09-11T19:08:57Z</time>
      </trkpt>
      <trkpt lat="50.62998" lon="3.34506">
        <ele>14</ele>
        <time>2024-09-11T19:08:59Z</time>
      </trkpt>
      <trkpt lat="50.6301" lon="3.34543">
        <ele>13</ele>
        <time>2024-09-11T19:09:05Z</time>
      </trkpt>
      <trkpt lat="50.63037" lon="3.34514">
        <ele>14</ele>
        <time>2024-09-11T19:09:13Z</time>
      </trkpt>
      <trkpt lat="50.63042" lon="3.34476">
        <ele>14</ele>
        <time>2024-09-11T19:09:18Z</time>
      </trkpt>
      <trkpt lat="50.63054" lon="3.34461">
        <ele>14</ele>
        <time>2024-09-11T19:09:22Z</time>
      </trkpt>
      <trkpt lat="50.63065" lon="3.34416">
        <ele>15</ele>
        <time>2024-09-11T19:09:29Z</time>
      </trkpt>
      <trkpt lat="50.63061" lon="3.34391">
        <ele>15</ele>
        <time>2024-09-11T19:09:33Z</time>
      </trkpt>
      <trkpt lat="50.63053" lon="3.34383">
        <ele>15</ele>
        <time>2024-09-11T19:09:35Z</time>
      </trkpt>
      <trkpt lat="50.63034" lon="3.34381">
        <ele>15</ele>
        <time>2024-09-11T19:09:39Z</time>
      </trkpt>
      <trkpt lat="50.63" lon="3.34398">
        <ele>15</ele>
        <time>2024-09-11T19:09:48Z</time>
      </trkpt>
      <trkpt lat="50.62983" lon="3.34353">
        <ele>15</ele>
        <time>2024-09-11T19:09:56Z</time>
      </trkpt>
      <trkpt lat="50.62858" lon="3.34461">
        <ele>15</ele>
        <time>2024-09-11T19:10:29Z</time>
      </trkpt>
      <trkpt lat="50.62827" lon="3.34392">
        <ele>16</ele>
        <time>2024-09-11T19:10:41Z</time>
      </trkpt>
      <trkpt lat="50.62727" lon="3.34528">
        <ele>18</ele>
        <time>2024-09-11T19:11:12Z</time>
      </trkpt>
      <trkpt lat="50.62596" lon="3.34781">
        <ele>21</ele>
        <time>2024-09-11T19:12:01Z</time>
      </trkpt>
      <trkpt lat="50.62543" lon="3.34862">
        <ele>19</ele>
        <time>2024-09-11T19:12:18Z</time>
      </trkpt>
      <trkpt lat="50.62468" lon="3.34972">
        <ele>16</ele>
        <time>2024-09-11T19:12:42Z</time>
      </trkpt>
      <trkpt lat="50.62325" lon="3.348">
        <ele>22</ele>
        <time>2024-09-11T19:13:24Z</time>
      </trkpt>
      <trkpt lat="50.62279" lon="3.34748">
        <ele>24</ele>
        <time>2024-09-11T19:13:37Z</time>
      </trkpt>
      <trkpt lat="50.62131" lon="3.3499">
        <ele>24</ele>
        <time>2024-09-11T19:14:27Z</time>
      </trkpt>
      <trkpt lat="50.62009" lon="3.35036">
        <ele>27</ele>
        <time>2024-09-11T19:14:56Z</time>
      </trkpt>
      <trkpt lat="50.61848" lon="3.35289">
        <ele>29</ele>
        <time>2024-09-11T19:15:49Z</time>
      </trkpt>
      <trkpt lat="50.61799" lon="3.35413">
        <ele>27</ele>
        <time>2024-09-11T19:16:11Z</time>
      </trkpt>
      <trkpt lat="50.61745" lon="3.35381">
        <ele>28</ele>
        <time>2024-09-11T19:16:24Z</time>
      </trkpt>
      <trkpt lat="50.61718" lon="3.35443">
        <ele>26</ele>
        <time>2024-09-11T19:16:35Z</time>
      </trkpt>
      <trkpt lat="50.61377" lon="3.35654">
        <ele>25</ele>
        <time>2024-09-11T19:18:01Z</time>
      </trkpt>
      <trkpt lat="50.61282" lon="3.35559">
        <ele>29</ele>
        <time>2024-09-11T19:18:27Z</time>
      </trkpt>
      <trkpt lat="50.61208" lon="3.3545">
        <ele>26</ele>
        <time>2024-09-11T19:18:51Z</time>
      </trkpt>
      <trkpt lat="50.61159" lon="3.3545">
        <ele>26</ele>
        <time>2024-09-11T19:19:02Z</time>
      </trkpt>
      <trkpt lat="50.61105" lon="3.35418">
        <ele>29</ele>
        <time>2024-09-11T19:19:16Z</time>
      </trkpt>
      <trkpt lat="50.6104" lon="3.35443">
        <ele>31</ele>
        <time>2024-09-11T19:19:31Z</time>
      </trkpt>
      <trkpt lat="50.60944" lon="3.35441">
        <ele>35</ele>
        <time>2024-09-11T19:19:54Z</time>
      </trkpt>
      <trkpt lat="50.6087" lon="3.35492">
        <ele>38</ele>
        <time>2024-09-11T19:20:13Z</time>
      </trkpt>
      <trkpt lat="50.60835" lon="3.35793">
        <ele>38</ele>
        <time>2024-09-11T19:20:58Z</time>
      </trkpt>
      <trkpt lat="50.60843" lon="3.36033">
        <ele>35</ele>
        <time>2024-09-11T19:21:34Z</time>
      </trkpt>
      <trkpt lat="50.60829" lon="3.36108">
        <ele>36</ele>
        <time>2024-09-11T19:21:45Z</time>
      </trkpt>
      <trkpt lat="50.60451" lon="3.36019">
        <ele>45</ele>
        <time>2024-09-11T19:23:15Z</time>
      </trkpt>
      <trkpt lat="50.60016" lon="3.36074">
        <ele>50</ele>
        <time>2024-09-11T19:24:56Z</time>
      </trkpt>
      <trkpt lat="50.59779" lon="3.34083">
        <ele>52</ele>
        <time>2024-09-11T19:29:57Z</time>
      </trkpt>
      <trkpt lat="50.59618" lon="3.34041">
        <ele>54</ele>
        <time>2024-09-11T19:30:35Z</time>
      </trkpt>
      <trkpt lat="50.5949" lon="3.34264">
        <ele>60</ele>
        <time>2024-09-11T19:31:19Z</time>
      </trkpt>
      <trkpt lat="50.59337" lon="3.34053">
        <ele>62</ele>
        <time>2024-09-11T19:32:07Z</time>
      </trkpt>
      <trkpt lat="50.59247" lon="3.34036">
        <ele>65</ele>
        <time>2024-09-11T19:32:28Z</time>
      </trkpt>
      <trkpt lat="50.58809" lon="3.33594">
        <ele>68</ele>
        <time>2024-09-11T19:34:30Z</time>
      </trkpt>
      <trkpt lat="50.58528" lon="3.33998">
        <ele>59</ele>
        <time>2024-09-11T19:35:58Z</time>
      </trkpt>
      <trkpt lat="50.58438" lon="3.33849">
        <ele>58</ele>
        <time>2024-09-11T19:36:29Z</time>
      </trkpt>
      <trkpt lat="50.58302" lon="3.3335">
        <ele>53</ele>
        <time>2024-09-11T19:37:49Z</time>
      </trkpt>
      <trkpt lat="50.58144" lon="3.33749">
        <ele>50</ele>
        <time>2024-09-11T19:38:59Z</time>
      </trkpt>
      <trkpt lat="50.58054" lon="3.34023">
        <ele>49</ele>
        <time>2024-09-11T19:39:45Z</time>
      </trkpt>
      <trkpt lat="50.57874" lon="3.34367">
        <ele>48</ele>
        <time>2024-09-11T19:40:51Z</time>
      </trkpt>
      <trkpt lat="50.57744" lon="3.34733">
        <ele>44</ele>
        <time>2024-09-11T19:41:53Z</time>
      </trkpt>
      <trkpt lat="50.5783" lon="3.34991">
        <ele>44</ele>
        <time>2024-09-11T19:42:36Z</time>
      </trkpt>
      <trkpt lat="50.57874" lon="3.35233">
        <ele>42</ele>
        <time>2024-09-11T19:43:14Z</time>
      </trkpt>
      <trkpt lat="50.5784" lon="3.3539">
        <ele>41</ele>
        <time>2024-09-11T19:43:38Z</time>
      </trkpt>
      <trkpt lat="50.5789" lon="3.35634">
        <ele>41</ele>
        <time>2024-09-11T19:44:16Z</time>
      </trkpt>
      <trkpt lat="50.58097" lon="3.36044">
        <ele>45</ele>
        <time>2024-09-11T19:45:34Z</time>
      </trkpt>
      <trkpt lat="50.58228" lon="3.36145">
        <ele>47</ele>
        <time>2024-09-11T19:46:08Z</time>
      </trkpt>
      <trkpt lat="50.58073" lon="3.36248">
        <ele>43</ele>
        <time>2024-09-11T19:46:47Z</time>
      </trkpt>
      <trkpt lat="50.57922" lon="3.36218">
        <ele>35</ele>
        <time>2024-09-11T19:47:23Z</time>
      </trkpt>
      <trkpt lat="50.57843" lon="3.36224">
        <ele>32</ele>
        <time>2024-09-11T19:47:41Z</time>
      </trkpt>
      <trkpt lat="50.57929" lon="3.36486">
        <ele>33</ele>
        <time>2024-09-11T19:48:25Z</time>
      </trkpt>
      <trkpt lat="50.57787" lon="3.36534">
        <ele>36</ele>
        <time>2024-09-11T19:48:59Z</time>
      </trkpt>
      <trkpt lat="50.57631" lon="3.36422">
        <ele>42</ele>
        <time>2024-09-11T19:49:39Z</time>
      </trkpt>
      <trkpt lat="50.57283" lon="3.36559">
        <ele>48</ele>
        <time>2024-09-11T19:51:03Z</time>
      </trkpt>
      <trkpt lat="50.57209" lon="3.36401">
        <ele>49</ele>
        <time>2024-09-11T19:51:32Z</time>
      </trkpt>
      <trkpt lat="50.57146" lon="3.3637">
        <ele>50</ele>
        <time>2024-09-11T19:51:47Z</time>
      </trkpt>
      <trkpt lat="50.56977" lon="3.36407">
        <ele>54</ele>
        <time>2024-09-11T19:52:27Z</time>
      </trkpt>
      <trkpt lat="50.56665" lon="3.36561">
        <ele>56</ele>
        <time>2024-09-11T19:53:44Z</time>
      </trkpt>
      <trkpt lat="50.56511" lon="3.36742">
        <ele>59</ele>
        <time>2024-09-11T19:54:28Z</time>
      </trkpt>
      <trkpt lat="50.56393" lon="3.36985">
        <ele>60</ele>
        <time>2024-09-11T19:55:14Z</time>
      </trkpt>
      <trkpt lat="50.56289" lon="3.37276">
        <ele>66</ele>
        <time>2024-09-11T19:56:03Z</time>
      </trkpt>
      <trkpt lat="50.56336" lon="3.37462">
        <ele>71</ele>
        <time>2024-09-11T19:56:33Z</time>
      </trkpt>
      <trkpt lat="50.56209" lon="3.37624">
        <ele>66</ele>
        <time>2024-09-11T19:57:11Z</time>
      </trkpt>
      <trkpt lat="50.56252" lon="3.37851">
        <ele>64</ele>
        <time>2024-09-11T19:57:46Z</time>
      </trkpt>
      <trkpt lat="50.56348" lon="3.38021">
        <ele>68</ele>
        <time>2024-09-11T19:58:20Z</time>
      </trkpt>
      <trkpt lat="50.56375" lon="3.38151">
        <ele>70</ele>
        <time>2024-09-11T19:58:40Z</time>
      </trkpt>
      <trkpt lat="50.56386" lon="3.38291">
        <ele>70</ele>
        <time>2024-09-11T19:59:01Z</time>
      </trkpt>
      <trkpt lat="50.56323" lon="3.38411">
        <ele>65</ele>
        <time>2024-09-11T19:59:24Z</time>
      </trkpt>
      <trkpt lat="50.56413" lon="3.38555">
        <ele>65</ele>
        <time>2024-09-11T19:59:54Z</time>
      </trkpt>
      <trkpt lat="50.56538" lon="3.38684">
        <ele>67</ele>
        <time>2024-09-11T20:00:29Z</time>
      </trkpt>
      <trkpt lat="50.56964" lon="3.38938">
        <ele>70</ele>
        <time>2024-09-11T20:02:16Z</time>
      </trkpt>
      <trkpt lat="50.56988" lon="3.39018">
        <ele>68</ele>
        <time>2024-09-11T20:02:29Z</time>
      </trkpt>
      <trkpt lat="50.57033" lon="3.38999">
        <ele>69</ele>
        <time>2024-09-11T20:02:40Z</time>
      </trkpt>
      <trkpt lat="50.57115" lon="3.39053">
        <ele>68</ele>
        <time>2024-09-11T20:03:00Z</time>
      </trkpt>
      <trkpt lat="50.57013" lon="3.39383">
        <ele>61</ele>
        <time>2024-09-11T20:03:55Z</time>
      </trkpt>
      <trkpt lat="50.57167" lon="3.39458">
        <ele>62</ele>
        <time>2024-09-11T20:04:33Z</time>
      </trkpt>
      <trkpt lat="50.57275" lon="3.39468">
        <ele>62</ele>
        <time>2024-09-11T20:04:58Z</time>
      </trkpt>
      <trkpt lat="50.57298" lon="3.39636">
        <ele>60</ele>
        <time>2024-09-11T20:05:23Z</time>
      </trkpt>
      <trkpt lat="50.57385" lon="3.40259">
        <ele>49</ele>
        <time>2024-09-11T20:06:58Z</time>
      </trkpt>
      <trkpt lat="50.57234" lon="3.40297">
        <ele>47</ele>
        <time>2024-09-11T20:07:34Z</time>
      </trkpt>
      <trkpt lat="50.57199" lon="3.40314">
        <ele>47</ele>
        <time>2024-09-11T20:07:42Z</time>
      </trkpt>
      <trkpt lat="50.57221" lon="3.40377">
        <ele>46</ele>
        <time>2024-09-11T20:07:53Z</time>
      </trkpt>
      <trkpt lat="50.57232" lon="3.4046">
        <ele>45</ele>
        <time>2024-09-11T20:08:05Z</time>
      </trkpt>
      <trkpt lat="50.57283" lon="3.40783">
        <ele>44</ele>
        <time>2024-09-11T20:08:55Z</time>
      </trkpt>
      <trkpt lat="50.5738" lon="3.41408">
        <ele>41</ele>
        <time>2024-09-11T20:10:30Z</time>
      </trkpt>
      <trkpt lat="50.57461" lon="3.41352">
        <ele>42</ele>
        <time>2024-09-11T20:10:51Z</time>
      </trkpt>
      <trkpt lat="50.57599" lon="3.41844">
        <ele>42</ele>
        <time>2024-09-11T20:12:11Z</time>
      </trkpt>
      <trkpt lat="50.57639" lon="3.41926">
        <ele>42</ele>
        <time>2024-09-11T20:12:26Z</time>
      </trkpt>
      <trkpt lat="50.57781" lon="3.42104">
        <ele>42</ele>
        <time>2024-09-11T20:13:08Z</time>
      </trkpt>
      <trkpt lat="50.57843" lon="3.42166">
        <ele>44</ele>
        <time>2024-09-11T20:13:25Z</time>
      </trkpt>
      <trkpt lat="50.57901" lon="3.42192">
        <ele>41</ele>
        <time>2024-09-11T20:13:40Z</time>
      </trkpt>
      <trkpt lat="50.57924" lon="3.42231">
        <ele>43</ele>
        <time>2024-09-11T20:13:47Z</time>
      </trkpt>
      <trkpt lat="50.57967" lon="3.42236">
        <ele>42</ele>
        <time>2024-09-11T20:13:58Z</time>
      </trkpt>
      <trkpt lat="50.58006" lon="3.42256">
        <ele>42</ele>
        <time>2024-09-11T20:14:07Z</time>
      </trkpt>
      <trkpt lat="50.58058" lon="3.42314">
        <ele>45</ele>
        <time>2024-09-11T20:14:22Z</time>
      </trkpt>
      <trkpt lat="50.58075" lon="3.42348">
        <ele>45</ele>
        <time>2024-09-11T20:14:28Z</time>
      </trkpt>
      <trkpt lat="50.58087" lon="3.42417">
        <ele>48</ele>
        <time>2024-09-11T20:14:39Z</time>
      </trkpt>
      <trkpt lat="50.58184" lon="3.42552">
        <ele>36</ele>
        <time>2024-09-11T20:15:09Z</time>
      </trkpt>
      <trkpt lat="50.58178" lon="3.4259">
        <ele>36</ele>
        <time>2024-09-11T20:15:15Z</time>
      </trkpt>
      <trkpt lat="50.58152" lon="3.4264">
        <ele>39</ele>
        <time>2024-09-11T20:15:25Z</time>
      </trkpt>
      <trkpt lat="50.58084" lon="3.42623">
        <ele>49</ele>
        <time>2024-09-11T20:15:41Z</time>
      </trkpt>
      <trkpt lat="50.58011" lon="3.42599">
        <ele>54</ele>
        <time>2024-09-11T20:15:58Z</time>
      </trkpt>
      <trkpt lat="50.57934" lon="3.42739">
        <ele>50</ele>
        <time>2024-09-11T20:16:26Z</time>
      </trkpt>
      <trkpt lat="50.57928" lon="3.42819">
        <ele>46</ele>
        <time>2024-09-11T20:16:38Z</time>
      </trkpt>
      <trkpt lat="50.5796" lon="3.42874">
        <ele>46</ele>
        <time>2024-09-11T20:16:49Z</time>
      </trkpt>
      <trkpt lat="50.57969" lon="3.42901">
        <ele>46</ele>
        <time>2024-09-11T20:16:53Z</time>
      </trkpt>
      <trkpt lat="50.57947" lon="3.42965">
        <ele>40</ele>
        <time>2024-09-11T20:17:04Z</time>
      </trkpt>
      <trkpt lat="50.57947" lon="3.42999">
        <ele>39</ele>
        <time>2024-09-11T20:17:09Z</time>
      </trkpt>
      <trkpt lat="50.57982" lon="3.43005">
        <ele>41</ele>
        <time>2024-09-11T20:17:17Z</time>
      </trkpt>
      <trkpt lat="50.58014" lon="3.42963">
        <ele>46</ele>
        <time>2024-09-11T20:17:27Z</time>
      </trkpt>
      <trkpt lat="50.58029" lon="3.42874">
        <ele>52</ele>
        <time>2024-09-11T20:17:41Z</time>
      </trkpt>
      <trkpt lat="50.58048" lon="3.42854">
        <ele>53</ele>
        <time>2024-09-11T20:17:46Z</time>
      </trkpt>
      <trkpt lat="50.58073" lon="3.42859">
        <ele>54</ele>
        <time>2024-09-11T20:17:52Z</time>
      </trkpt>
      <trkpt lat="50.58123" lon="3.42894">
        <ele>51</ele>
        <time>2024-09-11T20:18:05Z</time>
      </trkpt>
      <trkpt lat="50.58166" lon="3.4294">
        <ele>48</ele>
        <time>2024-09-11T20:18:17Z</time>
      </trkpt>
      <trkpt lat="50.58193" lon="3.42976">
        <ele>43</ele>
        <time>2024-09-11T20:18:25Z</time>
      </trkpt>
      <trkpt lat="50.58206" lon="3.43003">
        <ele>41</ele>
        <time>2024-09-11T20:18:30Z</time>
      </trkpt>
      <trkpt lat="50.58217" lon="3.43046">
        <ele>40</ele>
        <time>2024-09-11T20:18:37Z</time>
      </trkpt>
      <trkpt lat="50.5822" lon="3.43072">
        <ele>39</ele>
        <time>2024-09-11T20:18:41Z</time>
      </trkpt>
      <trkpt lat="50.58213" lon="3.43093">
        <ele>39</ele>
        <time>2024-09-11T20:18:44Z</time>
      </trkpt>
      <trkpt lat="50.58189" lon="3.43104">
        <ele>38</ele>
        <time>2024-09-11T20:18:50Z</time>
      </trkpt>
      <trkpt lat="50.58145" lon="3.43095">
        <ele>38</ele>
        <time>2024-09-11T20:19:00Z</time>
      </trkpt>
      <trkpt lat="50.58044" lon="3.43108">
        <ele>38</ele>
        <time>2024-09-11T20:19:24Z</time>
      </trkpt>
      <trkpt lat="50.58013" lon="3.43082">
        <ele>39</ele>
        <time>2024-09-11T20:19:32Z</time>
      </trkpt>
      <trkpt lat="50.5798" lon="3.43158">
        <ele>37</ele>
        <time>2024-09-11T20:19:46Z</time>
      </trkpt>
      <trkpt lat="50.5799" lon="3.43215">
        <ele>35</ele>
        <time>2024-09-11T20:19:55Z</time>
      </trkpt>
      <trkpt lat="50.58083" lon="3.43271">
        <ele>31</ele>
        <time>2024-09-11T20:20:18Z</time>
      </trkpt>
      <trkpt lat="50.58129" lon="3.43342">
        <ele>29</ele>
        <time>2024-09-11T20:20:33Z</time>
      </trkpt>
      <trkpt lat="50.58193" lon="3.43306">
        <ele>30</ele>
        <time>2024-09-11T20:20:49Z</time>
      </trkpt>
      <trkpt lat="50.58335" lon="3.43173">
        <ele>25</ele>
        <time>2024-09-11T20:21:28Z</time>
      </trkpt>
      <trkpt lat="50.5843" lon="3.4305">
        <ele>21</ele>
        <time>2024-09-11T20:21:56Z</time>
      </trkpt>
      <trkpt lat="50.58496" lon="3.43126">
        <ele>17</ele>
        <time>2024-09-11T20:22:15Z</time>
      </trkpt>
      <trkpt lat="50.58504" lon="3.43149">
        <ele>16</ele>
        <time>2024-09-11T20:22:19Z</time>
      </trkpt>
      <trkpt lat="50.58496" lon="3.43198">
        <ele>16</ele>
        <time>2024-09-11T20:22:27Z</time>
      </trkpt>
      <trkpt lat="50.58501" lon="3.43215">
        <ele>15</ele>
        <time>2024-09-11T20:22:30Z</time>
      </trkpt>
      <trkpt lat="50.5857" lon="3.43103">
        <ele>16</ele>
        <time>2024-09-11T20:22:53Z</time>
      </trkpt>
      <trkpt lat="50.58596" lon="3.43061">
        <ele>17</ele>
        <time>2024-09-11T20:23:01Z</time>
      </trkpt>
      <trkpt lat="50.58599" lon="3.43041">
        <ele>17</ele>
        <time>2024-09-11T20:23:04Z</time>
      </trkpt>
      <trkpt lat="50.58588" lon="3.43012">
        <ele>18</ele>
        <time>2024-09-11T20:23:09Z</time>
      </trkpt>
      <trkpt lat="50.5856" lon="3.42982">
        <ele>19</ele>
        <time>2024-09-11T20:23:17Z</time>
      </trkpt>
      <trkpt lat="50.58577" lon="3.4291">
        <ele>20</ele>
        <time>2024-09-11T20:23:29Z</time>
      </trkpt>
      <trkpt lat="50.58638" lon="3.42752">
        <ele>20</ele>
        <time>2024-09-11T20:23:56Z</time>
      </trkpt>
      <trkpt lat="50.58687" lon="3.42693">
        <ele>19</ele>
        <time>2024-09-11T20:24:11Z</time>
      </trkpt>
      <trkpt lat="50.58747" lon="3.42583">
        <ele>19</ele>
        <time>2024-09-11T20:24:32Z</time>
      </trkpt>
      <trkpt lat="50.58792" lon="3.42558">
        <ele>19</ele>
        <time>2024-09-11T20:24:43Z</time>
      </trkpt>
      <trkpt lat="50.58807" lon="3.42559">
        <ele>18</ele>
        <time>2024-09-11T20:24:47Z</time>
      </trkpt>
      <trkpt lat="50.58916" lon="3.42749">
        <ele>17</ele>
        <time>2024-09-11T20:25:25Z</time>
      </trkpt>
      <trkpt lat="50.58958" lon="3.42783">
        <ele>20</ele>
        <time>2024-09-11T20:25:36Z</time>
      </trkpt>
      <trkpt lat="50.58984" lon="3.42811">
        <ele>21</ele>
        <time>2024-09-11T20:25:43Z</time>
      </trkpt>
      <trkpt lat="50.5901" lon="3.42866">
        <ele>23</ele>
        <time>2024-09-11T20:25:53Z</time>
      </trkpt>
      <trkpt lat="50.59068" lon="3.42959">
        <ele>24</ele>
        <time>2024-09-11T20:26:13Z</time>
      </trkpt>
      <trkpt lat="50.59094" lon="3.42985">
        <ele>24</ele>
        <time>2024-09-11T20:26:20Z</time>
      </trkpt>
      <trkpt lat="50.5911" lon="3.43005">
        <ele>23</ele>
        <time>2024-09-11T20:26:24Z</time>
      </trkpt>
      <trkpt lat="50.5912" lon="3.43024">
        <ele>23</ele>
        <time>2024-09-11T20:26:28Z</time>
      </trkpt>
      <trkpt lat="50.5913" lon="3.43065">
        <ele>23</ele>
        <time>2024-09-11T20:26:35Z</time>
      </trkpt>
      <trkpt lat="50.59141" lon="3.43107">
        <ele>23</ele>
        <time>2024-09-11T20:26:41Z</time>
      </trkpt>
      <trkpt lat="50.59156" lon="3.43157">
        <ele>23</ele>
        <time>2024-09-11T20:26:50Z</time>
      </trkpt>
      <trkpt lat="50.59169" lon="3.43198">
        <ele>23</ele>
        <time>2024-09-11T20:26:56Z</time>
      </trkpt>
      <trkpt lat="50.59188" lon="3.4324">
        <ele>24</ele>
        <time>2024-09-11T20:27:04Z</time>
      </trkpt>
      <trkpt lat="50.59205" lon="3.43277">
        <ele>25</ele>
        <time>2024-09-11T20:27:11Z</time>
      </trkpt>
      <trkpt lat="50.59223" lon="3.4334">
        <ele>25</ele>
        <time>2024-09-11T20:27:21Z</time>
      </trkpt>
      <trkpt lat="50.59251" lon="3.43448">
        <ele>26</ele>
        <time>2024-09-11T20:27:38Z</time>
      </trkpt>
      <trkpt lat="50.59278" lon="3.43522">
        <ele>27</ele>
        <time>2024-09-11T20:27:51Z</time>
      </trkpt>
      <trkpt lat="50.5931" lon="3.43597">
        <ele>27</ele>
        <time>2024-09-11T20:28:04Z</time>
      </trkpt>
      <trkpt lat="50.59362" lon="3.4368">
        <ele>28</ele>
        <time>2024-09-11T20:28:22Z</time>
      </trkpt>
      <trkpt lat="50.5941" lon="3.43745">
        <ele>28</ele>
        <time>2024-09-11T20:28:36Z</time>
      </trkpt>
      <trkpt lat="50.59407" lon="3.43757">
        <ele>28</ele>
        <time>2024-09-11T20:28:38Z</time>
      </trkpt>
      <trkpt lat="50.59403" lon="3.43772">
        <ele>29</ele>
        <time>2024-09-11T20:28:41Z</time>
      </trkpt>
      <trkpt lat="50.59422" lon="3.43774">
        <ele>29</ele>
        <time>2024-09-11T20:28:45Z</time>
      </trkpt>
      <trkpt lat="50.59467" lon="3.43809">
        <ele>31</ele>
        <time>2024-09-11T20:28:57Z</time>
      </trkpt>
      <trkpt lat="50.59575" lon="3.43892">
        <ele>32</ele>
        <time>2024-09-11T20:29:25Z</time>
      </trkpt>
      <trkpt lat="50.59716" lon="3.44037">
        <ele>34</ele>
        <time>2024-09-11T20:30:04Z</time>
      </trkpt>
      <trkpt lat="50.59733" lon="3.44071">
        <ele>33</ele>
        <time>2024-09-11T20:30:11Z</time>
      </trkpt>
      <trkpt lat="50.59798" lon="3.44153">
        <ele>35</ele>
        <time>2024-09-11T20:30:30Z</time>
      </trkpt>
      <trkpt lat="50.59866" lon="3.44239">
        <ele>37</ele>
        <time>2024-09-11T20:30:51Z</time>
      </trkpt>
      <trkpt lat="50.59869" lon="3.4431">
        <ele>37</ele>
        <time>2024-09-11T20:31:01Z</time>
      </trkpt>
      <trkpt lat="50.59886" lon="3.44405">
        <ele>39</ele>
        <time>2024-09-11T20:31:16Z</time>
      </trkpt>
      <trkpt lat="50.59958" lon="3.44477">
        <ele>36</ele>
        <time>2024-09-11T20:31:36Z</time>
      </trkpt>
      <trkpt lat="50.59971" lon="3.44518">
        <ele>35</ele>
        <time>2024-09-11T20:31:42Z</time>
      </trkpt>
      <trkpt lat="50.5992" lon="3.44851">
        <ele>35</ele>
        <time>2024-09-11T20:32:33Z</time>
      </trkpt>
      <trkpt lat="50.59844" lon="3.44825">
        <ele>41</ele>
        <time>2024-09-11T20:32:51Z</time>
      </trkpt>
      <trkpt lat="50.59836" lon="3.44825">
        <ele>42</ele>
        <time>2024-09-11T20:32:53Z</time>
      </trkpt>
      <trkpt lat="50.59819" lon="3.44821">
        <ele>42</ele>
        <time>2024-09-11T20:32:57Z</time>
      </trkpt>
      <trkpt lat="50.59811" lon="3.44811">
        <ele>41</ele>
        <time>2024-09-11T20:33:00Z</time>
      </trkpt>
      <trkpt lat="50.598" lon="3.44822">
        <ele>41</ele>
        <time>2024-09-11T20:33:03Z</time>
      </trkpt>
      <trkpt lat="50.59796" lon="3.4495">
        <ele>42</ele>
        <time>2024-09-11T20:33:22Z</time>
      </trkpt>
      <trkpt lat="50.59789" lon="3.44993">
        <ele>41</ele>
        <time>2024-09-11T20:33:28Z</time>
      </trkpt>
      <trkpt lat="50.59787" lon="3.45034">
        <ele>42</ele>
        <time>2024-09-11T20:33:34Z</time>
      </trkpt>
      <trkpt lat="50.59782" lon="3.4507">
        <ele>43</ele>
        <time>2024-09-11T20:33:40Z</time>
      </trkpt>
      <trkpt lat="50.59781" lon="3.45092">
        <ele>44</ele>
        <time>2024-09-11T20:33:43Z</time>
      </trkpt>
      <trkpt lat="50.59785" lon="3.45105">
        <ele>45</ele>
        <time>2024-09-11T20:33:45Z</time>
      </trkpt>
      <trkpt lat="50.59791" lon="3.45103">
        <ele>45</ele>
        <time>2024-09-11T20:33:47Z</time>
      </trkpt>
      <trkpt lat="50.59802" lon="3.45075">
        <ele>45</ele>
        <time>2024-09-11T20:33:52Z</time>
      </trkpt>
      <trkpt lat="50.59804" lon="3.45053">
        <ele>44</ele>
        <time>2024-09-11T20:33:55Z</time>
      </trkpt>
      <trkpt lat="50.5981" lon="3.45066">
        <ele>45</ele>
        <time>2024-09-11T20:33:57Z</time>
      </trkpt>
      <trkpt lat="50.59825" lon="3.45074">
        <ele>46</ele>
        <time>2024-09-11T20:34:01Z</time>
      </trkpt>
      <trkpt lat="50.59838" lon="3.45089">
        <ele>47</ele>
        <time>2024-09-11T20:34:05Z</time>
      </trkpt>
      <trkpt lat="50.59841" lon="3.4511">
        <ele>47</ele>
        <time>2024-09-11T20:34:08Z</time>
      </trkpt>
      <trkpt lat="50.59834" lon="3.45143">
        <ele>49</ele>
        <time>2024-09-11T20:34:13Z</time>
      </trkpt>
      <trkpt lat="50.59804" lon="3.45139">
        <ele>47</ele>
        <time>2024-09-11T20:34:20Z</time>
      </trkpt>
      <trkpt lat="50.59784" lon="3.45168">
        <ele>46</ele>
        <time>2024-09-11T20:34:26Z</time>
      </trkpt>
      <trkpt lat="50.59799" lon="3.45195">
        <ele>47</ele>
        <time>2024-09-11T20:34:32Z</time>
      </trkpt>
      <trkpt lat="50.59803" lon="3.45218">
        <ele>47</ele>
        <time>2024-09-11T20:34:35Z</time>
      </trkpt>
      <trkpt lat="50.59803" lon="3.45242">
        <ele>46</ele>
        <time>2024-09-11T20:34:39Z</time>
      </trkpt>
      <trkpt lat="50.59792" lon="3.45255">
        <ele>46</ele>
        <time>2024-09-11T20:34:42Z</time>
      </trkpt>
      <trkpt lat="50.59795" lon="3.45266">
        <ele>46</ele>
        <time>2024-09-11T20:34:44Z</time>
      </trkpt>
      <trkpt lat="50.59823" lon="3.45253">
        <ele>47</ele>
        <time>2024-09-11T20:34:51Z</time>
      </trkpt>
      <trkpt lat="50.59837" lon="3.45265">
        <ele>46</ele>
        <time>2024-09-11T20:34:54Z</time>
      </trkpt>
      <trkpt lat="50.59842" lon="3.45209">
        <ele>47</ele>
        <time>2024-09-11T20:35:03Z</time>
      </trkpt>
      <trkpt lat="50.59839" lon="3.45178">
        <ele>49</ele>
        <time>2024-09-11T20:35:07Z</time>
      </trkpt>
      <trkpt lat="50.59853" lon="3.45141">
        <ele>47</ele>
        <time>2024-09-11T20:35:14Z</time>
      </trkpt>
      <trkpt lat="50.59843" lon="3.45121">
        <ele>47</ele>
        <time>2024-09-11T20:35:18Z</time>
      </trkpt>
      <trkpt lat="50.59848" lon="3.45107">
        <ele>46</ele>
        <time>2024-09-11T20:35:20Z</time>
      </trkpt>
      <trkpt lat="50.59869" lon="3.45116">
        <ele>44</ele>
        <time>2024-09-11T20:35:25Z</time>
      </trkpt>
      <trkpt lat="50.59888" lon="3.45105">
        <ele>42</ele>
        <time>2024-09-11T20:35:30Z</time>
      </trkpt>
      <trkpt lat="50.59906" lon="3.45092">
        <ele>39</ele>
        <time>2024-09-11T20:35:34Z</time>
      </trkpt>
      <trkpt lat="50.59915" lon="3.45021">
        <ele>37</ele>
        <time>2024-09-11T20:35:45Z</time>
      </trkpt>
      <trkpt lat="50.59939" lon="3.44866">
        <ele>36</ele>
        <time>2024-09-11T20:36:09Z</time>
      </trkpt>
      <trkpt lat="50.60195" lon="3.45071">
        <ele>29</ele>
        <time>2024-09-11T20:37:16Z</time>
      </trkpt>
      <trkpt lat="50.60275" lon="3.44847">
        <ele>32</ele>
        <time>2024-09-11T20:37:54Z</time>
      </trkpt>
      <trkpt lat="50.60291" lon="3.44741">
        <ele>32</ele>
        <time>2024-09-11T20:38:10Z</time>
      </trkpt>
      <trkpt lat="50.60314" lon="3.44612">
        <ele>29</ele>
        <time>2024-09-11T20:38:30Z</time>
      </trkpt>
      <trkpt lat="50.60315" lon="3.44551">
        <ele>28</ele>
        <time>2024-09-11T20:38:39Z</time>
      </trkpt>
      <trkpt lat="50.60294" lon="3.4443">
        <ele>30</ele>
        <time>2024-09-11T20:38:58Z</time>
      </trkpt>
      <trkpt lat="50.60264" lon="3.44373">
        <ele>32</ele>
        <time>2024-09-11T20:39:09Z</time>
      </trkpt>
      <trkpt lat="50.60322" lon="3.44189">
        <ele>29</ele>
        <time>2024-09-11T20:39:39Z</time>
      </trkpt>
      <trkpt lat="50.60329" lon="3.44078">
        <ele>30</ele>
        <time>2024-09-11T20:39:56Z</time>
      </trkpt>
      <trkpt lat="50.60323" lon="3.43902">
        <ele>32</ele>
        <time>2024-09-11T20:40:22Z</time>
      </trkpt>
      <trkpt lat="50.60366" lon="3.4377">
        <ele>31</ele>
        <time>2024-09-11T20:40:44Z</time>
      </trkpt>
      <trkpt lat="50.60373" lon="3.43666">
        <ele>33</ele>
        <time>2024-09-11T20:40:59Z</time>
      </trkpt>
      <trkpt lat="50.60365" lon="3.4364">
        <ele>33</ele>
        <time>2024-09-11T20:41:03Z</time>
      </trkpt>
      <trkpt lat="50.60354" lon="3.43558">
        <ele>36</ele>
        <time>2024-09-11T20:41:16Z</time>
      </trkpt>
      <trkpt lat="50.60356" lon="3.43461">
        <ele>37</ele>
        <time>2024-09-11T20:41:30Z</time>
      </trkpt>
      <trkpt lat="50.60376" lon="3.43373">
        <ele>34</ele>
        <time>2024-09-11T20:41:44Z</time>
      </trkpt>
      <trkpt lat="50.60408" lon="3.43319">
        <ele>32</ele>
        <time>2024-09-11T20:41:55Z</time>
      </trkpt>
      <trkpt lat="50.60844" lon="3.43056">
        <ele>23</ele>
        <time>2024-09-11T20:43:44Z</time>
      </trkpt>
      <trkpt lat="50.60862" lon="3.43233">
        <ele>19</ele>
        <time>2024-09-11T20:44:11Z</time>
      </trkpt>
      <trkpt lat="50.60878" lon="3.43293">
        <ele>19</ele>
        <time>2024-09-11T20:44:20Z</time>
      </trkpt>
      <trkpt lat="50.60913" lon="3.4335">
        <ele>19</ele>
        <time>2024-09-11T20:44:32Z</time>
      </trkpt>
      <trkpt lat="50.60934" lon="3.43315">
        <ele>19</ele>
        <time>2024-09-11T20:44:39Z</time>
      </trkpt>
      <trkpt lat="50.60991" lon="3.43211">
        <ele>18</ele>
        <time>2024-09-11T20:45:00Z</time>
      </trkpt>
      <trkpt lat="50.61294" lon="3.42917">
        <ele>20</ele>
        <time>2024-09-11T20:46:23Z</time>
      </trkpt>
      <trkpt lat="50.61405" lon="3.43393">
        <ele>23</ele>
        <time>2024-09-11T20:47:38Z</time>
      </trkpt>
      <trkpt lat="50.61427" lon="3.4346">
        <ele>24</ele>
        <time>2024-09-11T20:47:49Z</time>
      </trkpt>
      <trkpt lat="50.61471" lon="3.43574">
        <ele>22</ele>
        <time>2024-09-11T20:48:09Z</time>
      </trkpt>
      <trkpt lat="50.61494" lon="3.43662">
        <ele>23</ele>
        <time>2024-09-11T20:48:23Z</time>
      </trkpt>
      <trkpt lat="50.6152" lon="3.43826">
        <ele>22</ele>
        <time>2024-09-11T20:48:48Z</time>
      </trkpt>
      <trkpt lat="50.61599" lon="3.43775">
        <ele>21</ele>
        <time>2024-09-11T20:49:08Z</time>
      </trkpt>
      <trkpt lat="50.61382" lon="3.42757">
        <ele>24</ele>
        <time>2024-09-11T20:51:47Z</time>
      </trkpt>
      <trkpt lat="50.61505" lon="3.42696">
        <ele>23</ele>
        <time>2024-09-11T20:52:17Z</time>
      </trkpt>
      <trkpt lat="50.61538" lon="3.4266">
        <ele>24</ele>
        <time>2024-09-11T20:52:26Z</time>
      </trkpt>
      <trkpt lat="50.61567" lon="3.4266">
        <ele>24</ele>
        <time>2024-09-11T20:52:33Z</time>
      </trkpt>
      <trkpt lat="50.62038" lon="3.42445">
        <ele>28</ele>
        <time>2024-09-11T20:54:28Z</time>
      </trkpt>
      <trkpt lat="50.62016" lon="3.42319">
        <ele>26</ele>
        <time>2024-09-11T20:54:47Z</time>
      </trkpt>
      <trkpt lat="50.62099" lon="3.42277">
        <ele>26</ele>
        <time>2024-09-11T20:55:07Z</time>
      </trkpt>
      <trkpt lat="50.62168" lon="3.42238">
        <ele>27</ele>
        <time>2024-09-11T20:55:25Z</time>
      </trkpt>
      <trkpt lat="50.62166" lon="3.42201">
        <ele>26</ele>
        <time>2024-09-11T20:55:30Z</time>
      </trkpt>
      <trkpt lat="50.62226" lon="3.42112">
        <ele>23</ele>
        <time>2024-09-11T20:55:49Z</time>
      </trkpt>
      <trkpt lat="50.62311" lon="3.42085">
        <ele>24</ele>
        <time>2024-09-11T20:56:10Z</time>
      </trkpt>
      <trkpt lat="50.62375" lon="3.42104">
        <ele>25</ele>
        <time>2024-09-11T20:56:25Z</time>
      </trkpt>
      <trkpt lat="50.62394" lon="3.42102">
        <ele>26</ele>
        <time>2024-09-11T20:56:29Z</time>
      </trkpt>
      <trkpt lat="50.6241" lon="3.42084">
        <ele>26</ele>
        <time>2024-09-11T20:56:34Z</time>
      </trkpt>
      <trkpt lat="50.62473" lon="3.42055">
        <ele>28</ele>
        <time>2024-09-11T20:56:49Z</time>
      </trkpt>
      <trkpt lat="50.62531" lon="3.42008">
        <ele>27</ele>
        <time>2024-09-11T20:57:04Z</time>
      </trkpt>
      <trkpt lat="50.62585" lon="3.41974">
        <ele>26</ele>
        <time>2024-09-11T20:57:18Z</time>
      </trkpt>
      <trkpt lat="50.62653" lon="3.41903">
        <ele>27</ele>
        <time>2024-09-11T20:57:37Z</time>
      </trkpt>
      <trkpt lat="50.62702" lon="3.41848">
        <ele>27</ele>
        <time>2024-09-11T20:57:51Z</time>
      </trkpt>
      <trkpt lat="50.62744" lon="3.41783">
        <ele>26</ele>
        <time>2024-09-11T20:58:05Z</time>
      </trkpt>
      <trkpt lat="50.62753" lon="3.41751">
        <ele>25</ele>
        <time>2024-09-11T20:58:10Z</time>
      </trkpt>
      <trkpt lat="50.62764" lon="3.41738">
        <ele>25</ele>
        <time>2024-09-11T20:58:13Z</time>
      </trkpt>
      <trkpt lat="50.62775" lon="3.4172">
        <ele>25</ele>
        <time>2024-09-11T20:58:17Z</time>
      </trkpt>
      <trkpt lat="50.6278" lon="3.41682">
        <ele>25</ele>
        <time>2024-09-11T20:58:23Z</time>
      </trkpt>
      <trkpt lat="50.62779" lon="3.41646">
        <ele>24</ele>
        <time>2024-09-11T20:58:28Z</time>
      </trkpt>
      <trkpt lat="50.62778" lon="3.41633">
        <ele>24</ele>
        <time>2024-09-11T20:58:30Z</time>
      </trkpt>
      <trkpt lat="50.62772" lon="3.4162">
        <ele>23</ele>
        <time>2024-09-11T20:58:32Z</time>
      </trkpt>
      <trkpt lat="50.62814" lon="3.41638">
        <ele>23</ele>
        <time>2024-09-11T20:58:42Z</time>
      </trkpt>
      <trkpt lat="50.62838" lon="3.41639">
        <ele>23</ele>
        <time>2024-09-11T20:58:48Z</time>
      </trkpt>
      <trkpt lat="50.62836" lon="3.41724">
        <ele>26</ele>
        <time>2024-09-11T20:59:01Z</time>
      </trkpt>
      <trkpt lat="50.6284" lon="3.41728">
        <ele>26</ele>
        <time>2024-09-11T20:59:02Z</time>
      </trkpt>
      <trkpt lat="50.62854" lon="3.4173">
        <ele>26</ele>
        <time>2024-09-11T20:59:05Z</time>
      </trkpt>
      <trkpt lat="50.62888" lon="3.41661">
        <ele>24</ele>
        <time>2024-09-11T20:59:18Z</time>
      </trkpt>
      <trkpt lat="50.62901" lon="3.41647">
        <ele>24</ele>
        <time>2024-09-11T20:59:22Z</time>
      </trkpt>
      <trkpt lat="50.62914" lon="3.41644">
        <ele>24</ele>
        <time>2024-09-11T20:59:25Z</time>
      </trkpt>
      <trkpt lat="50.62923" lon="3.4163">
        <ele>24</ele>
        <time>2024-09-11T20:59:28Z</time>
      </trkpt>
      <trkpt lat="50.62943" lon="3.41617">
        <ele>25</ele>
        <time>2024-09-11T20:59:33Z</time>
      </trkpt>
      <trkpt lat="50.62961" lon="3.41618">
        <ele>25</ele>
        <time>2024-09-11T20:59:37Z</time>
      </trkpt>
      <trkpt lat="50.62982" lon="3.41629">
        <ele>26</ele>
        <time>2024-09-11T20:59:42Z</time>
      </trkpt>
      <trkpt lat="50.62992" lon="3.41644">
        <ele>25</ele>
        <time>2024-09-11T20:59:45Z</time>
      </trkpt>
      <trkpt lat="50.62988" lon="3.4166">
        <ele>25</ele>
        <time>2024-09-11T20:59:48Z</time>
      </trkpt>
      <trkpt lat="50.62972" lon="3.41665">
        <ele>25</ele>
        <time>2024-09-11T20:59:52Z</time>
      </trkpt>
      <trkpt lat="50.62954" lon="3.41693">
        <ele>25</ele>
        <time>2024-09-11T20:59:58Z</time>
      </trkpt>
      <trkpt lat="50.62931" lon="3.41717">
        <ele>25</ele>
        <time>2024-09-11T21:00:04Z</time>
      </trkpt>
      <trkpt lat="50.62914" lon="3.41731">
        <ele>25</ele>
        <time>2024-09-11T21:00:09Z</time>
      </trkpt>
      <trkpt lat="50.62896" lon="3.41759">
        <ele>25</ele>
        <time>2024-09-11T21:00:14Z</time>
      </trkpt>
      <trkpt lat="50.62856" lon="3.41798">
        <ele>26</ele>
        <time>2024-09-11T21:00:25Z</time>
      </trkpt>
      <trkpt lat="50.62837" lon="3.41788">
        <ele>27</ele>
        <time>2024-09-11T21:00:30Z</time>
      </trkpt>
      <trkpt lat="50.62812" lon="3.41819">
        <ele>28</ele>
        <time>2024-09-11T21:00:38Z</time>
      </trkpt>
      <trkpt lat="50.62795" lon="3.41834">
        <ele>28</ele>
        <time>2024-09-11T21:00:42Z</time>
      </trkpt>
      <trkpt lat="50.62791" lon="3.41858">
        <ele>28</ele>
        <time>2024-09-11T21:00:46Z</time>
      </trkpt>
      <trkpt lat="50.62775" lon="3.4188">
        <ele>27</ele>
        <time>2024-09-11T21:00:51Z</time>
      </trkpt>
      <trkpt lat="50.62759" lon="3.41892">
        <ele>28</ele>
        <time>2024-09-11T21:00:55Z</time>
      </trkpt>
      <trkpt lat="50.62747" lon="3.41938">
        <ele>27</ele>
        <time>2024-09-11T21:01:02Z</time>
      </trkpt>
      <trkpt lat="50.62764" lon="3.41967">
        <ele>26</ele>
        <time>2024-09-11T21:01:08Z</time>
      </trkpt>
      <trkpt lat="50.62967" lon="3.42174">
        <ele>27</ele>
        <time>2024-09-11T21:02:05Z</time>
      </trkpt>
      <trkpt lat="50.63123" lon="3.41964">
        <ele>26</ele>
        <time>2024-09-11T21:02:52Z</time>
      </trkpt>
      <trkpt lat="50.6315" lon="3.4192">
        <ele>26</ele>
        <time>2024-09-11T21:03:01Z</time>
      </trkpt>
      <trkpt lat="50.63181" lon="3.41846">
        <ele>27</ele>
        <time>2024-09-11T21:03:15Z</time>
      </trkpt>
      <trkpt lat="50.63238" lon="3.41758">
        <ele>26</ele>
        <time>2024-09-11T21:03:33Z</time>
      </trkpt>
      <trkpt lat="50.63269" lon="3.41718">
        <ele>26</ele>
        <time>2024-09-11T21:03:43Z</time>
      </trkpt>
      <trkpt lat="50.63276" lon="3.41687">
        <ele>27</ele>
        <time>2024-09-11T21:03:47Z</time>
      </trkpt>
      <trkpt lat="50.63552" lon="3.41751">
        <ele>30</ele>
        <time>2024-09-11T21:04:53Z</time>
      </trkpt>
      <trkpt lat="50.63564" lon="3.41712">
        <ele>29</ele>
        <time>2024-09-11T21:04:59Z</time>
      </trkpt>
      <trkpt lat="50.63575" lon="3.41624">
        <ele>28</ele>
        <time>2024-09-11T21:05:12Z</time>
      </trkpt>
      <trkpt lat="50.63574" lon="3.41555">
        <ele>27</ele>
        <time>2024-09-11T21:05:23Z</time>
      </trkpt>
      <trkpt lat="50.63564" lon="3.41511">
        <ele>27</ele>
        <time>2024-09-11T21:05:29Z</time>
      </trkpt>
      <trkpt lat="50.63537" lon="3.41456">
        <ele>26</ele>
        <time>2024-09-11T21:05:40Z</time>
      </trkpt>
      <trkpt lat="50.63479" lon="3.41372">
        <ele>23</ele>
        <time>2024-09-11T21:05:58Z</time>
      </trkpt>
      <trkpt lat="50.63477" lon="3.41348">
        <ele>23</ele>
        <time>2024-09-11T21:06:02Z</time>
      </trkpt>
      <trkpt lat="50.6375" lon="3.41358">
        <ele>26</ele>
        <time>2024-09-11T21:07:06Z</time>
      </trkpt>
      <trkpt lat="50.64077" lon="3.41205">
        <ele>22</ele>
        <time>2024-09-11T21:08:25Z</time>
      </trkpt>
      <trkpt lat="50.64288" lon="3.41152">
        <ele>24</ele>
        <time>2024-09-11T21:09:15Z</time>
      </trkpt>
      <trkpt lat="50.64396" lon="3.41094">
        <ele>29</ele>
        <time>2024-09-11T21:09:42Z</time>
      </trkpt>
      <trkpt lat="50.64531" lon="3.41007">
        <ele>35</ele>
        <time>2024-09-11T21:10:16Z</time>
      </trkpt>
      <trkpt lat="50.64713" lon="3.4089">
        <ele>46</ele>
        <time>2024-09-11T21:11:02Z</time>
      </trkpt>
      <trkpt lat="50.64835" lon="3.40772">
        <ele>57</ele>
        <time>2024-09-11T21:11:35Z</time>
      </trkpt>
      <trkpt lat="50.6492" lon="3.40623">
        <ele>69</ele>
        <time>2024-09-11T21:12:05Z</time>
      </trkpt>
      <trkpt lat="50.64998" lon="3.40617">
        <ele>68</ele>
        <time>2024-09-11T21:12:23Z</time>
      </trkpt>
      <trkpt lat="50.64995" lon="3.4052">
        <ele>77</ele>
        <time>2024-09-11T21:12:37Z</time>
      </trkpt>
      <trkpt lat="50.64949" lon="3.40439">
        <ele>75</ele>
        <time>2024-09-11T21:12:53Z</time>
      </trkpt>
      <trkpt lat="50.64899" lon="3.40445">
        <ele>71</ele>
        <time>2024-09-11T21:13:05Z</time>
      </trkpt>
      <trkpt lat="50.64873" lon="3.40425">
        <ele>68</ele>
        <time>2024-09-11T21:13:12Z</time>
      </trkpt>
      <trkpt lat="50.64843" lon="3.40374">
        <ele>63</ele>
        <time>2024-09-11T21:13:22Z</time>
      </trkpt>
      <trkpt lat="50.64812" lon="3.40349">
        <ele>60</ele>
        <time>2024-09-11T21:13:30Z</time>
      </trkpt>
      <trkpt lat="50.64665" lon="3.40341">
        <ele>47</ele>
        <time>2024-09-11T21:14:05Z</time>
      </trkpt>
      <trkpt lat="50.64686" lon="3.4027">
        <ele>45</ele>
        <time>2024-09-11T21:14:16Z</time>
      </trkpt>
      <trkpt lat="50.6473" lon="3.40224">
        <ele>45</ele>
        <time>2024-09-11T21:14:29Z</time>
      </trkpt>
      <trkpt lat="50.64777" lon="3.40118">
        <ele>46</ele>
        <time>2024-09-11T21:14:48Z</time>
      </trkpt>
      <trkpt lat="50.64793" lon="3.4003">
        <ele>48</ele>
        <time>2024-09-11T21:15:01Z</time>
      </trkpt>
      <trkpt lat="50.64831" lon="3.40037">
        <ele>50</ele>
        <time>2024-09-11T21:15:10Z</time>
      </trkpt>
      <trkpt lat="50.64886" lon="3.39852">
        <ele>59</ele>
        <time>2024-09-11T21:15:41Z</time>
      </trkpt>
      <trkpt lat="50.64895" lon="3.3981">
        <ele>62</ele>
        <time>2024-09-11T21:15:47Z</time>
      </trkpt>
      <trkpt lat="50.64897" lon="3.39787">
        <ele>63</ele>
        <time>2024-09-11T21:15:51Z</time>
      </trkpt>
      <trkpt lat="50.64895" lon="3.3971">
        <ele>65</ele>
        <time>2024-09-11T21:16:02Z</time>
      </trkpt>
      <trkpt lat="50.64917" lon="3.39546">
        <ele>69</ele>
        <time>2024-09-11T21:16:27Z</time>
      </trkpt>
      <trkpt lat="50.64926" lon="3.39541">
        <ele>70</ele>
        <time>2024-09-11T21:16:29Z</time>
      </trkpt>
      <trkpt lat="50.64971" lon="3.39541">
        <ele>75</ele>
        <time>2024-09-11T21:16:40Z</time>
      </trkpt>
      <trkpt lat="50.64981" lon="3.39535">
        <ele>76</ele>
        <time>2024-09-11T21:16:42Z</time>
      </trkpt>
      <trkpt lat="50.65045" lon="3.39545">
        <ele>80</ele>
        <time>2024-09-11T21:16:57Z</time>
      </trkpt>
      <trkpt lat="50.65109" lon="3.39576">
        <ele>84</ele>
        <time>2024-09-11T21:17:13Z</time>
      </trkpt>
      <trkpt lat="50.65145" lon="3.39618">
        <ele>88</ele>
        <time>2024-09-11T21:17:23Z</time>
      </trkpt>
      <trkpt lat="50.65182" lon="3.39653">
        <ele>93</ele>
        <time>2024-09-11T21:17:33Z</time>
      </trkpt>
      <trkpt lat="50.65208" lon="3.39673">
        <ele>98</ele>
        <time>2024-09-11T21:17:40Z</time>
      </trkpt>
      <trkpt lat="50.65231" lon="3.39671">
        <ele>103</ele>
        <time>2024-09-11T21:17:45Z</time>
      </trkpt>
      <trkpt lat="50.65263" lon="3.39664">
        <ele>107</ele>
        <time>2024-09-11T21:17:53Z</time>
      </trkpt>
      <trkpt lat="50.65278" lon="3.39695">
        <ele>111</ele>
        <time>2024-09-11T21:17:59Z</time>
      </trkpt>
      <trkpt lat="50.65311" lon="3.39734">
        <ele>118</ele>
        <time>2024-09-11T21:18:08Z</time>
      </trkpt>
      <trkpt lat="50.65334" lon="3.3975">
        <ele>124</ele>
        <time>2024-09-11T21:18:14Z</time>
      </trkpt>
      <trkpt lat="50.65353" lon="3.39762">
        <ele>124</ele>
        <time>2024-09-11T21:18:19Z</time>
      </trkpt>
      <trkpt lat="50.65361" lon="3.39772">
        <ele>125</ele>
        <time>2024-09-11T21:18:21Z</time>
      </trkpt>
      <trkpt lat="50.65369" lon="3.3979">
        <ele>126</ele>
        <time>2024-09-11T21:18:25Z</time>
      </trkpt>
      <trkpt lat="50.65381" lon="3.39808">
        <ele>128</ele>
        <time>2024-09-11T21:18:28Z</time>
      </trkpt>
      <trkpt lat="50.65394" lon="3.39821">
        <ele>130</ele>
        <time>2024-09-11T21:18:32Z</time>
      </trkpt>
      <trkpt lat="50.65403" lon="3.39828">
        <ele>132</ele>
        <time>2024-09-11T21:18:34Z</time>
      </trkpt>
      <trkpt lat="50.65409" lon="3.39839">
        <ele>133</ele>
        <time>2024-09-11T21:18:37Z</time>
      </trkpt>
      <trkpt lat="50.65416" lon="3.39846">
        <ele>134</ele>
        <time>2024-09-11T21:18:38Z</time>
      </trkpt>
      <trkpt lat="50.65419" lon="3.39859">
        <ele>135</ele>
        <time>2024-09-11T21:18:41Z</time>
      </trkpt>
      <trkpt lat="50.65426" lon="3.39873">
        <ele>135</ele>
        <time>2024-09-11T21:18:43Z</time>
      </trkpt>
      <trkpt lat="50.65434" lon="3.39868">
        <ele>134</ele>
        <time>2024-09-11T21:18:45Z</time>
      </trkpt>
      <trkpt lat="50.65443" lon="3.39913">
        <ele>137</ele>
        <time>2024-09-11T21:18:52Z</time>
      </trkpt>
      <trkpt lat="50.65449" lon="3.39937">
        <ele>137</ele>
        <time>2024-09-11T21:18:56Z</time>
      </trkpt>
      <trkpt lat="50.65453" lon="3.39947">
        <ele>137</ele>
        <time>2024-09-11T21:18:58Z</time>
      </trkpt>
      <trkpt lat="50.65458" lon="3.39957">
        <ele>137</ele>
        <time>2024-09-11T21:19:00Z</time>
      </trkpt>
      <trkpt lat="50.65471" lon="3.39967">
        <ele>137</ele>
        <time>2024-09-11T21:19:03Z</time>
      </trkpt>
      <trkpt lat="50.65487" lon="3.39972">
        <ele>138</ele>
        <time>2024-09-11T21:19:07Z</time>
      </trkpt>
      <trkpt lat="50.65495" lon="3.40011">
        <ele>139</ele>
        <time>2024-09-11T21:19:13Z</time>
      </trkpt>
      <trkpt lat="50.65492" lon="3.4006">
        <ele>138</ele>
        <time>2024-09-11T21:19:20Z</time>
      </trkpt>
      <trkpt lat="50.65516" lon="3.40061">
        <ele>138</ele>
        <time>2024-09-11T21:19:26Z</time>
      </trkpt>
      <trkpt lat="50.65523" lon="3.40067">
        <ele>137</ele>
        <time>2024-09-11T21:19:28Z</time>
      </trkpt>
      <trkpt lat="50.65533" lon="3.40141">
        <ele>136</ele>
        <time>2024-09-11T21:19:39Z</time>
      </trkpt>
      <trkpt lat="50.65534" lon="3.40185">
        <ele>136</ele>
        <time>2024-09-11T21:19:45Z</time>
      </trkpt>
      <trkpt lat="50.65567" lon="3.40273">
        <ele>133</ele>
        <time>2024-09-11T21:20:01Z</time>
      </trkpt>
      <trkpt lat="50.65578" lon="3.40257">
        <ele>135</ele>
        <time>2024-09-11T21:20:04Z</time>
      </trkpt>
      <trkpt lat="50.65601" lon="3.40218">
        <ele>133</ele>
        <time>2024-09-11T21:20:12Z</time>
      </trkpt>
      <trkpt lat="50.65607" lon="3.40192">
        <ele>131</ele>
        <time>2024-09-11T21:20:16Z</time>
      </trkpt>
      <trkpt lat="50.65608" lon="3.40165">
        <ele>131</ele>
        <time>2024-09-11T21:20:20Z</time>
      </trkpt>
      <trkpt lat="50.65617" lon="3.40085">
        <ele>129</ele>
        <time>2024-09-11T21:20:32Z</time>
      </trkpt>
      <trkpt lat="50.65628" lon="3.40045">
        <ele>128</ele>
        <time>2024-09-11T21:20:38Z</time>
      </trkpt>
      <trkpt lat="50.65637" lon="3.4003">
        <ele>127</ele>
        <time>2024-09-11T21:20:42Z</time>
      </trkpt>
      <trkpt lat="50.65666" lon="3.40024">
        <ele>125</ele>
        <time>2024-09-11T21:20:48Z</time>
      </trkpt>
      <trkpt lat="50.65681" lon="3.40015">
        <ele>124</ele>
        <time>2024-09-11T21:20:52Z</time>
      </trkpt>
      <trkpt lat="50.65696" lon="3.40027">
        <ele>122</ele>
        <time>2024-09-11T21:20:56Z</time>
      </trkpt>
      <trkpt lat="50.65712" lon="3.40023">
        <ele>122</ele>
        <time>2024-09-11T21:21:00Z</time>
      </trkpt>
      <trkpt lat="50.65735" lon="3.39998">
        <ele>122</ele>
        <time>2024-09-11T21:21:06Z</time>
      </trkpt>
      <trkpt lat="50.65748" lon="3.39959">
        <ele>123</ele>
        <time>2024-09-11T21:21:13Z</time>
      </trkpt>
      <trkpt lat="50.65756" lon="3.39961">
        <ele>123</ele>
        <time>2024-09-11T21:21:15Z</time>
      </trkpt>
      <trkpt lat="50.65768" lon="3.39979">
        <ele>121</ele>
        <time>2024-09-11T21:21:19Z</time>
      </trkpt>
      <trkpt lat="50.65788" lon="3.39976">
        <ele>120</ele>
        <time>2024-09-11T21:21:23Z</time>
      </trkpt>
      <trkpt lat="50.65797" lon="3.39968">
        <ele>120</ele>
        <time>2024-09-11T21:21:26Z</time>
      </trkpt>
      <trkpt lat="50.65801" lon="3.39959">
        <ele>121</ele>
        <time>2024-09-11T21:21:27Z</time>
      </trkpt>
      <trkpt lat="50.65803" lon="3.39934">
        <ele>122</ele>
        <time>2024-09-11T21:21:31Z</time>
      </trkpt>
      <trkpt lat="50.65808" lon="3.3992">
        <ele>123</ele>
        <time>2024-09-11T21:21:33Z</time>
      </trkpt>
      <trkpt lat="50.65812" lon="3.39914">
        <ele>123</ele>
        <time>2024-09-11T21:21:35Z</time>
      </trkpt>
      <trkpt lat="50.65819" lon="3.39926">
        <ele>122</ele>
        <time>2024-09-11T21:21:37Z</time>
      </trkpt>
      <trkpt lat="50.65832" lon="3.39934">
        <ele>121</ele>
        <time>2024-09-11T21:21:40Z</time>
      </trkpt>
      <trkpt lat="50.65877" lon="3.39936">
        <ele>115</ele>
        <time>2024-09-11T21:21:51Z</time>
      </trkpt>
      <trkpt lat="50.65886" lon="3.39941">
        <ele>114</ele>
        <time>2024-09-11T21:21:53Z</time>
      </trkpt>
      <trkpt lat="50.65909" lon="3.39966">
        <ele>110</ele>
        <time>2024-09-11T21:22:00Z</time>
      </trkpt>
      <trkpt lat="50.65926" lon="3.40006">
        <ele>105</ele>
        <time>2024-09-11T21:22:07Z</time>
      </trkpt>
      <trkpt lat="50.65944" lon="3.39993">
        <ele>103</ele>
        <time>2024-09-11T21:22:11Z</time>
      </trkpt>
      <trkpt lat="50.65963" lon="3.39966">
        <ele>101</ele>
        <time>2024-09-11T21:22:17Z</time>
      </trkpt>
      <trkpt lat="50.65987" lon="3.39954">
        <ele>97</ele>
        <time>2024-09-11T21:22:23Z</time>
      </trkpt>
      <trkpt lat="50.66021" lon="3.39954">
        <ele>91</ele>
        <time>2024-09-11T21:22:31Z</time>
      </trkpt>
      <trkpt lat="50.66056" lon="3.39976">
        <ele>87</ele>
        <time>2024-09-11T21:22:40Z</time>
      </trkpt>
      <trkpt lat="50.66088" lon="3.39989">
        <ele>83</ele>
        <time>2024-09-11T21:22:48Z</time>
      </trkpt>
      <trkpt lat="50.66131" lon="3.39994">
        <ele>79</ele>
        <time>2024-09-11T21:22:58Z</time>
      </trkpt>
      <trkpt lat="50.66194" lon="3.39997">
        <ele>74</ele>
        <time>2024-09-11T21:23:13Z</time>
      </trkpt>
      <trkpt lat="50.66226" lon="3.39997">
        <ele>71</ele>
        <time>2024-09-11T21:23:20Z</time>
      </trkpt>
      <trkpt lat="50.66235" lon="3.39989">
        <ele>70</ele>
        <time>2024-09-11T21:23:22Z</time>
      </trkpt>
      <trkpt lat="50.66236" lon="3.39981">
        <ele>70</ele>
        <time>2024-09-11T21:23:24Z</time>
      </trkpt>
      <trkpt lat="50.66162" lon="3.39947">
        <ele>74</ele>
        <time>2024-09-11T21:23:42Z</time>
      </trkpt>
      <trkpt lat="50.66077" lon="3.3978">
        <ele>75</ele>
        <time>2024-09-11T21:24:13Z</time>
      </trkpt>
      <trkpt lat="50.6602" lon="3.39764">
        <ele>83</ele>
        <time>2024-09-11T21:24:27Z</time>
      </trkpt>
      <trkpt lat="50.65985" lon="3.39766">
        <ele>89</ele>
        <time>2024-09-11T21:24:35Z</time>
      </trkpt>
      <trkpt lat="50.65937" lon="3.39751">
        <ele>99</ele>
        <time>2024-09-11T21:24:46Z</time>
      </trkpt>
      <trkpt lat="50.65864" lon="3.39701">
        <ele>107</ele>
        <time>2024-09-11T21:25:05Z</time>
      </trkpt>
      <trkpt lat="50.65817" lon="3.39679">
        <ele>110</ele>
        <time>2024-09-11T21:25:16Z</time>
      </trkpt>
      <trkpt lat="50.65797" lon="3.39675">
        <ele>111</ele>
        <time>2024-09-11T21:25:21Z</time>
      </trkpt>
      <trkpt lat="50.6569" lon="3.39654">
        <ele>117</ele>
        <time>2024-09-11T21:25:46Z</time>
      </trkpt>
      <trkpt lat="50.65666" lon="3.39653">
        <ele>118</ele>
        <time>2024-09-11T21:25:52Z</time>
      </trkpt>
      <trkpt lat="50.65659" lon="3.39658">
        <ele>118</ele>
        <time>2024-09-11T21:25:54Z</time>
      </trkpt>
      <trkpt lat="50.65652" lon="3.39664">
        <ele>118</ele>
        <time>2024-09-11T21:25:56Z</time>
      </trkpt>
      <trkpt lat="50.65643" lon="3.39669">
        <ele>118</ele>
        <time>2024-09-11T21:25:58Z</time>
      </trkpt>
      <trkpt lat="50.65634" lon="3.39668">
        <ele>118</ele>
        <time>2024-09-11T21:26:00Z</time>
      </trkpt>
      <trkpt lat="50.65622" lon="3.39665">
        <ele>117</ele>
        <time>2024-09-11T21:26:03Z</time>
      </trkpt>
      <trkpt lat="50.65608" lon="3.3966">
        <ele>117</ele>
        <time>2024-09-11T21:26:06Z</time>
      </trkpt>
      <trkpt lat="50.65592" lon="3.39658">
        <ele>117</ele>
        <time>2024-09-11T21:26:10Z</time>
      </trkpt>
      <trkpt lat="50.65584" lon="3.3966">
        <ele>117</ele>
        <time>2024-09-11T21:26:12Z</time>
      </trkpt>
      <trkpt lat="50.65575" lon="3.39666">
        <ele>116</ele>
        <time>2024-09-11T21:26:14Z</time>
      </trkpt>
      <trkpt lat="50.65577" lon="3.39632">
        <ele>118</ele>
        <time>2024-09-11T21:26:19Z</time>
      </trkpt>
      <trkpt lat="50.65595" lon="3.3956">
        <ele>120</ele>
        <time>2024-09-11T21:26:31Z</time>
      </trkpt>
      <trkpt lat="50.65612" lon="3.39465">
        <ele>120</ele>
        <time>2024-09-11T21:26:45Z</time>
      </trkpt>
      <trkpt lat="50.65565" lon="3.39443">
        <ele>121</ele>
        <time>2024-09-11T21:26:57Z</time>
      </trkpt>
      <trkpt lat="50.65552" lon="3.39441">
        <ele>120</ele>
        <time>2024-09-11T21:27:00Z</time>
      </trkpt>
      <trkpt lat="50.65486" lon="3.39399">
        <ele>113</ele>
        <time>2024-09-11T21:27:16Z</time>
      </trkpt>
      <trkpt lat="50.65431" lon="3.39347">
        <ele>103</ele>
        <time>2024-09-11T21:27:31Z</time>
      </trkpt>
      <trkpt lat="50.65389" lon="3.39301">
        <ele>98</ele>
        <time>2024-09-11T21:27:43Z</time>
      </trkpt>
      <trkpt lat="50.65362" lon="3.3926">
        <ele>96</ele>
        <time>2024-09-11T21:27:52Z</time>
      </trkpt>
      <trkpt lat="50.6535" lon="3.39227">
        <ele>94</ele>
        <time>2024-09-11T21:27:58Z</time>
      </trkpt>
      <trkpt lat="50.65331" lon="3.39177">
        <ele>91</ele>
        <time>2024-09-11T21:28:06Z</time>
      </trkpt>
      <trkpt lat="50.65329" lon="3.39154">
        <ele>90</ele>
        <time>2024-09-11T21:28:10Z</time>
      </trkpt>
      <trkpt lat="50.65307" lon="3.39121">
        <ele>87</ele>
        <time>2024-09-11T21:28:17Z</time>
      </trkpt>
      <trkpt lat="50.6528" lon="3.39074">
        <ele>85</ele>
        <time>2024-09-11T21:28:26Z</time>
      </trkpt>
      <trkpt lat="50.6525" lon="3.3903">
        <ele>83</ele>
        <time>2024-09-11T21:28:36Z</time>
      </trkpt>
      <trkpt lat="50.6523" lon="3.39007">
        <ele>81</ele>
        <time>2024-09-11T21:28:42Z</time>
      </trkpt>
      <trkpt lat="50.65196" lon="3.38941">
        <ele>76</ele>
        <time>2024-09-11T21:28:54Z</time>
      </trkpt>
      <trkpt lat="50.65173" lon="3.38923">
        <ele>74</ele>
        <time>2024-09-11T21:29:00Z</time>
      </trkpt>
      <trkpt lat="50.65123" lon="3.38869">
        <ele>70</ele>
        <time>2024-09-11T21:29:14Z</time>
      </trkpt>
      <trkpt lat="50.65091" lon="3.38801">
        <ele>69</ele>
        <time>2024-09-11T21:29:27Z</time>
      </trkpt>
      <trkpt lat="50.64907" lon="3.39124">
        <ele>61</ele>
        <time>2024-09-11T21:30:31Z</time>
      </trkpt>
      <trkpt lat="50.6487" lon="3.39184">
        <ele>63</ele>
        <time>2024-09-11T21:30:44Z</time>
      </trkpt>
      <trkpt lat="50.64823" lon="3.3903">
        <ele>54</ele>
        <time>2024-09-11T21:31:09Z</time>
      </trkpt>
      <trkpt lat="50.64823" lon="3.38939">
        <ele>50</ele>
        <time>2024-09-11T21:31:22Z</time>
      </trkpt>
      <trkpt lat="50.64756" lon="3.38834">
        <ele>44</ele>
        <time>2024-09-11T21:31:44Z</time>
      </trkpt>
      <trkpt lat="50.64689" lon="3.38782">
        <ele>41</ele>
        <time>2024-09-11T21:32:02Z</time>
      </trkpt>
      <trkpt lat="50.64551" lon="3.38732">
        <ele>35</ele>
        <time>2024-09-11T21:32:35Z</time>
      </trkpt>
      <trkpt lat="50.6449" lon="3.38725">
        <ele>34</ele>
        <time>2024-09-11T21:32:49Z</time>
      </trkpt>
      <trkpt lat="50.64404" lon="3.38775">
        <ele>31</ele>
        <time>2024-09-11T21:33:11Z</time>
      </trkpt>
      <trkpt lat="50.64298" lon="3.38759">
        <ele>28</ele>
        <time>2024-09-11T21:33:35Z</time>
      </trkpt>
      <trkpt lat="50.64172" lon="3.38768">
        <ele>24</ele>
        <time>2024-09-11T21:34:05Z</time>
      </trkpt>
      <trkpt lat="50.64057" lon="3.38754">
        <ele>22</ele>
        <time>2024-09-11T21:34:32Z</time>
      </trkpt>
      <trkpt lat="50.64024" lon="3.38585">
        <ele>20</ele>
        <time>2024-09-11T21:34:58Z</time>
      </trkpt>
      <trkpt lat="50.63988" lon="3.38455">
        <ele>21</ele>
        <time>2024-09-11T21:35:19Z</time>
      </trkpt>
      <trkpt lat="50.63959" lon="3.38408">
        <ele>21</ele>
        <time>2024-09-11T21:35:29Z</time>
      </trkpt>
      <trkpt lat="50.63928" lon="3.38311">
        <ele>21</ele>
        <time>2024-09-11T21:35:45Z</time>
      </trkpt>
      <trkpt lat="50.63901" lon="3.38246">
        <ele>20</ele>
        <time>2024-09-11T21:35:56Z</time>
      </trkpt>
      <trkpt lat="50.63895" lon="3.38216">
        <ele>21</ele>
        <time>2024-09-11T21:36:01Z</time>
      </trkpt>
      <trkpt lat="50.63872" lon="3.38133">
        <ele>21</ele>
        <time>2024-09-11T21:36:14Z</time>
      </trkpt>
      <trkpt lat="50.63869" lon="3.38091">
        <ele>21</ele>
        <time>2024-09-11T21:36:21Z</time>
      </trkpt>
      <trkpt lat="50.63855" lon="3.38087">
        <ele>21</ele>
        <time>2024-09-11T21:36:24Z</time>
      </trkpt>
    </trkseg>
  </trk>
</gpx>